sensor_id;sensor_type;location;lat;lon;timestamp;P1;durP1;ratioP1;P2;durP2;ratioP2
11220;SDS011;8517;53.546;10.104;2023-04-01T00:00:50;6.80;;;3.40;;
11220;SDS011;8517;53.546;10.104;2023-04-01T00:03:18;7.80;;;4.10;;
11220;SDS011;8517;53.546;10.104;2023-04-01T00:05:45;6.40;;;3.77;;
11220;SDS011;8517;53.546;10.104;2023-04-01T00:08:12;5.13;;;3.43;;
11220;SDS011;8517;53.546;10.104;2023-04-01T00:10:40;7.10;;;3.80;;
11220;SDS011;8517;53.546;10.104;2023-04-01T00:13:07;6.20;;;3.70;;
11220;SDS011;8517;53.546;10.104;2023-04-01T00:15:35;7.47;;;4.00;;
11220;SDS011;8517;53.546;10.104;2023-04-01T00:18:02;5.80;;;3.50;;
11220;SDS011;8517;53.546;10.104;2023-04-01T00:20:29;7.77;;;4.40;;
11220;SDS011;8517;53.546;10.104;2023-04-01T00:22:56;4.37;;;3.43;;
11220;SDS011;8517;53.546;10.104;2023-04-01T00:25:24;5.43;;;3.40;;
11220;SDS011;8517;53.546;10.104;2023-04-01T00:27:51;7.70;;;4.10;;
11220;SDS011;8517;53.546;10.104;2023-04-01T00:30:18;6.50;;;4.00;;
11220;SDS011;8517;53.546;10.104;2023-04-01T00:32:46;6.30;;;4.13;;
11220;SDS011;8517;53.546;10.104;2023-04-01T00:35:13;6.27;;;3.77;;
11220;SDS011;8517;53.546;10.104;2023-04-01T00:37:39;5.83;;;3.80;;
11220;SDS011;8517;53.546;10.104;2023-04-01T00:40:07;8.00;;;3.90;;
11220;SDS011;8517;53.546;10.104;2023-04-01T00:42:47;6.73;;;3.83;;
11220;SDS011;8517;53.546;10.104;2023-04-01T00:45:27;9.30;;;4.13;;
11220;SDS011;8517;53.546;10.104;2023-04-01T00:48:05;7.73;;;4.03;;
11220;SDS011;8517;53.546;10.104;2023-04-01T00:50:36;7.33;;;3.77;;
11220;SDS011;8517;53.546;10.104;2023-04-01T00:53:05;6.60;;;3.73;;
11220;SDS011;8517;53.546;10.104;2023-04-01T00:55:33;7.57;;;4.30;;
11220;SDS011;8517;53.546;10.104;2023-04-01T00:58:03;7.10;;;4.00;;
11220;SDS011;8517;53.546;10.104;2023-04-01T01:00:33;6.17;;;4.00;;
11220;SDS011;8517;53.546;10.104;2023-04-01T01:03:02;7.87;;;3.90;;
11220;SDS011;8517;53.546;10.104;2023-04-01T01:05:34;6.83;;;3.60;;
11220;SDS011;8517;53.546;10.104;2023-04-01T01:08:10;5.87;;;4.27;;
11220;SDS011;8517;53.546;10.104;2023-04-01T01:10:41;6.53;;;4.40;;
11220;SDS011;8517;53.546;10.104;2023-04-01T01:13:14;8.30;;;4.00;;
11220;SDS011;8517;53.546;10.104;2023-04-01T01:15:48;5.30;;;3.83;;
11220;SDS011;8517;53.546;10.104;2023-04-01T01:18:19;9.20;;;4.03;;
11220;SDS011;8517;53.546;10.104;2023-04-01T01:26:46;7.67;;;4.10;;
11220;SDS011;8517;53.546;10.104;2023-04-01T01:29:45;7.10;;;4.23;;
11220;SDS011;8517;53.546;10.104;2023-04-01T01:32:37;5.77;;;4.27;;
11220;SDS011;8517;53.546;10.104;2023-04-01T01:35:19;7.43;;;4.43;;
11220;SDS011;8517;53.546;10.104;2023-04-01T01:37:49;6.37;;;3.87;;
11220;SDS011;8517;53.546;10.104;2023-04-01T01:40:18;8.50;;;4.60;;
11220;SDS011;8517;53.546;10.104;2023-04-01T01:42:48;8.87;;;4.50;;
11220;SDS011;8517;53.546;10.104;2023-04-01T01:45:21;6.70;;;4.30;;
11220;SDS011;8517;53.546;10.104;2023-04-01T01:47:51;7.10;;;4.33;;
11220;SDS011;8517;53.546;10.104;2023-04-01T01:50:20;8.97;;;4.30;;
11220;SDS011;8517;53.546;10.104;2023-04-01T01:52:48;7.20;;;3.93;;
11220;SDS011;8517;53.546;10.104;2023-04-01T01:55:23;7.27;;;4.80;;
11220;SDS011;8517;53.546;10.104;2023-04-01T01:57:52;6.27;;;4.03;;
11220;SDS011;8517;53.546;10.104;2023-04-01T02:00:21;7.13;;;4.40;;
11220;SDS011;8517;53.546;10.104;2023-04-01T02:02:48;5.77;;;4.13;;
11220;SDS011;8517;53.546;10.104;2023-04-01T02:05:17;6.87;;;4.00;;
11220;SDS011;8517;53.546;10.104;2023-04-01T02:07:48;7.00;;;4.27;;
11220;SDS011;8517;53.546;10.104;2023-04-01T02:10:19;5.83;;;4.33;;
11220;SDS011;8517;53.546;10.104;2023-04-01T02:12:48;8.47;;;3.93;;
11220;SDS011;8517;53.546;10.104;2023-04-01T02:15:18;7.20;;;4.43;;
11220;SDS011;8517;53.546;10.104;2023-04-01T02:17:47;6.97;;;4.70;;
11220;SDS011;8517;53.546;10.104;2023-04-01T02:20:16;8.73;;;4.17;;
11220;SDS011;8517;53.546;10.104;2023-04-01T02:22:48;7.30;;;4.10;;
11220;SDS011;8517;53.546;10.104;2023-04-01T02:25:17;8.77;;;4.80;;
11220;SDS011;8517;53.546;10.104;2023-04-01T02:27:49;8.97;;;4.70;;
11220;SDS011;8517;53.546;10.104;2023-04-01T02:30:16;9.63;;;4.77;;
11220;SDS011;8517;53.546;10.104;2023-04-01T02:32:44;6.20;;;4.43;;
11220;SDS011;8517;53.546;10.104;2023-04-01T02:35:13;9.00;;;5.27;;
11220;SDS011;8517;53.546;10.104;2023-04-01T02:37:41;5.20;;;4.00;;
11220;SDS011;8517;53.546;10.104;2023-04-01T02:40:11;7.60;;;4.60;;
11220;SDS011;8517;53.546;10.104;2023-04-01T02:42:40;7.40;;;4.47;;
11220;SDS011;8517;53.546;10.104;2023-04-01T02:45:07;5.80;;;4.40;;
11220;SDS011;8517;53.546;10.104;2023-04-01T02:47:35;8.33;;;4.30;;
11220;SDS011;8517;53.546;10.104;2023-04-01T02:50:01;6.23;;;4.40;;
11220;SDS011;8517;53.546;10.104;2023-04-01T02:52:29;7.63;;;4.67;;
11220;SDS011;8517;53.546;10.104;2023-04-01T02:54:56;5.77;;;4.00;;
11220;SDS011;8517;53.546;10.104;2023-04-01T02:57:24;6.87;;;4.17;;
11220;SDS011;8517;53.546;10.104;2023-04-01T02:59:51;5.97;;;3.93;;
11220;SDS011;8517;53.546;10.104;2023-04-01T03:02:18;5.30;;;3.80;;
11220;SDS011;8517;53.546;10.104;2023-04-01T03:04:45;5.90;;;4.10;;
11220;SDS011;8517;53.546;10.104;2023-04-01T03:07:12;8.63;;;3.80;;
11220;SDS011;8517;53.546;10.104;2023-04-01T03:09:38;6.40;;;3.97;;
11220;SDS011;8517;53.546;10.104;2023-04-01T03:12:06;6.30;;;4.10;;
11220;SDS011;8517;53.546;10.104;2023-04-01T03:14:34;7.23;;;4.60;;
11220;SDS011;8517;53.546;10.104;2023-04-01T03:17:01;7.07;;;4.70;;
11220;SDS011;8517;53.546;10.104;2023-04-01T03:19:27;7.87;;;4.27;;
11220;SDS011;8517;53.546;10.104;2023-04-01T03:21:54;6.50;;;4.33;;
11220;SDS011;8517;53.546;10.104;2023-04-01T03:24:21;7.50;;;4.53;;
11220;SDS011;8517;53.546;10.104;2023-04-01T03:26:48;6.80;;;4.67;;
11220;SDS011;8517;53.546;10.104;2023-04-01T03:29:15;5.70;;;3.87;;
11220;SDS011;8517;53.546;10.104;2023-04-01T03:31:43;9.10;;;5.90;;
11220;SDS011;8517;53.546;10.104;2023-04-01T03:34:10;6.97;;;4.77;;
11220;SDS011;8517;53.546;10.104;2023-04-01T03:36:37;10.60;;;5.80;;
11220;SDS011;8517;53.546;10.104;2023-04-01T03:39:03;6.93;;;4.73;;
11220;SDS011;8517;53.546;10.104;2023-04-01T03:41:31;6.60;;;4.73;;
11220;SDS011;8517;53.546;10.104;2023-04-01T03:43:58;6.63;;;5.00;;
11220;SDS011;8517;53.546;10.104;2023-04-01T03:46:25;9.57;;;5.30;;
11220;SDS011;8517;53.546;10.104;2023-04-01T03:48:53;9.63;;;5.23;;
11220;SDS011;8517;53.546;10.104;2023-04-01T03:51:20;8.37;;;5.00;;
11220;SDS011;8517;53.546;10.104;2023-04-01T03:53:47;7.20;;;5.20;;
11220;SDS011;8517;53.546;10.104;2023-04-01T03:56:15;6.93;;;4.90;;
11220;SDS011;8517;53.546;10.104;2023-04-01T03:58:42;7.07;;;5.20;;
11220;SDS011;8517;53.546;10.104;2023-04-01T04:01:15;9.23;;;5.00;;
11220;SDS011;8517;53.546;10.104;2023-04-01T04:03:43;6.83;;;5.70;;
11220;SDS011;8517;53.546;10.104;2023-04-01T04:06:13;6.47;;;5.53;;
11220;SDS011;8517;53.546;10.104;2023-04-01T04:08:40;8.03;;;4.93;;
11220;SDS011;8517;53.546;10.104;2023-04-01T04:11:07;7.40;;;5.87;;
11220;SDS011;8517;53.546;10.104;2023-04-01T04:13:34;7.20;;;5.60;;
11220;SDS011;8517;53.546;10.104;2023-04-01T04:16:02;6.00;;;4.93;;
11220;SDS011;8517;53.546;10.104;2023-04-01T04:18:29;7.33;;;5.50;;
11220;SDS011;8517;53.546;10.104;2023-04-01T04:20:58;6.43;;;5.80;;
11220;SDS011;8517;53.546;10.104;2023-04-01T04:23:26;5.97;;;5.47;;
11220;SDS011;8517;53.546;10.104;2023-04-01T04:25:55;9.00;;;5.97;;
11220;SDS011;8517;53.546;10.104;2023-04-01T04:28:22;7.40;;;5.43;;
11220;SDS011;8517;53.546;10.104;2023-04-01T04:30:50;8.57;;;5.40;;
11220;SDS011;8517;53.546;10.104;2023-04-01T04:33:17;6.63;;;5.23;;
11220;SDS011;8517;53.546;10.104;2023-04-01T04:35:44;7.87;;;5.40;;
11220;SDS011;8517;53.546;10.104;2023-04-01T04:38:10;9.13;;;5.40;;
11220;SDS011;8517;53.546;10.104;2023-04-01T04:40:42;8.07;;;5.73;;
11220;SDS011;8517;53.546;10.104;2023-04-01T04:43:12;8.43;;;5.83;;
11220;SDS011;8517;53.546;10.104;2023-04-01T04:45:41;6.43;;;5.70;;
11220;SDS011;8517;53.546;10.104;2023-04-01T04:48:08;7.63;;;5.23;;
11220;SDS011;8517;53.546;10.104;2023-04-01T04:50:39;7.53;;;5.20;;
11220;SDS011;8517;53.546;10.104;2023-04-01T04:53:08;6.87;;;5.73;;
11220;SDS011;8517;53.546;10.104;2023-04-01T04:55:37;8.07;;;5.60;;
11220;SDS011;8517;53.546;10.104;2023-04-01T04:58:12;6.87;;;5.63;;
11220;SDS011;8517;53.546;10.104;2023-04-01T05:00:39;8.73;;;5.43;;
11220;SDS011;8517;53.546;10.104;2023-04-01T05:03:06;6.20;;;5.60;;
11220;SDS011;8517;53.546;10.104;2023-04-01T05:05:33;7.07;;;5.20;;
11220;SDS011;8517;53.546;10.104;2023-04-01T05:08:00;8.63;;;6.20;;
11220;SDS011;8517;53.546;10.104;2023-04-01T05:10:27;7.17;;;6.37;;
11220;SDS011;8517;53.546;10.104;2023-04-01T05:12:54;7.80;;;5.93;;
11220;SDS011;8517;53.546;10.104;2023-04-01T05:15:22;6.57;;;5.83;;
11220;SDS011;8517;53.546;10.104;2023-04-01T05:17:49;8.60;;;6.23;;
11220;SDS011;8517;53.546;10.104;2023-04-01T05:20:16;6.77;;;5.87;;
11220;SDS011;8517;53.546;10.104;2023-04-01T05:22:43;7.70;;;5.67;;
11220;SDS011;8517;53.546;10.104;2023-04-01T05:25:10;7.33;;;5.33;;
11220;SDS011;8517;53.546;10.104;2023-04-01T05:27:37;8.03;;;5.83;;
11220;SDS011;8517;53.546;10.104;2023-04-01T05:30:04;6.43;;;5.80;;
11220;SDS011;8517;53.546;10.104;2023-04-01T05:32:34;6.77;;;5.67;;
11220;SDS011;8517;53.546;10.104;2023-04-01T05:35:00;6.03;;;5.50;;
11220;SDS011;8517;53.546;10.104;2023-04-01T05:37:27;5.93;;;5.20;;
11220;SDS011;8517;53.546;10.104;2023-04-01T05:39:54;2.50;;;2.30;;
11220;SDS011;8517;53.546;10.104;2023-04-01T05:42:21;1.97;;;1.60;;
11220;SDS011;8517;53.546;10.104;2023-04-01T05:44:47;0.87;;;0.87;;
11220;SDS011;8517;53.546;10.104;2023-04-01T05:47:14;0.70;;;0.70;;
11220;SDS011;8517;53.546;10.104;2023-04-01T05:49:42;1.07;;;1.00;;
11220;SDS011;8517;53.546;10.104;2023-04-01T05:52:09;1.20;;;1.00;;
11220;SDS011;8517;53.546;10.104;2023-04-01T05:54:36;1.20;;;1.10;;
11220;SDS011;8517;53.546;10.104;2023-04-01T05:57:03;0.97;;;0.87;;
11220;SDS011;8517;53.546;10.104;2023-04-01T05:59:30;1.77;;;1.30;;
11220;SDS011;8517;53.546;10.104;2023-04-01T06:01:57;0.83;;;0.83;;
11220;SDS011;8517;53.546;10.104;2023-04-01T06:04:24;2.03;;;1.17;;
11220;SDS011;8517;53.546;10.104;2023-04-01T06:06:52;1.10;;;1.00;;
11220;SDS011;8517;53.546;10.104;2023-04-01T06:09:19;1.10;;;1.00;;
11220;SDS011;8517;53.546;10.104;2023-04-01T06:11:59;1.03;;;0.97;;
11220;SDS011;8517;53.546;10.104;2023-04-01T06:14:59;0.60;;;0.60;;
11220;SDS011;8517;53.546;10.104;2023-04-01T06:17:41;1.00;;;0.90;;
11220;SDS011;8517;53.546;10.104;2023-04-01T06:20:19;0.70;;;0.70;;
11220;SDS011;8517;53.546;10.104;2023-04-01T06:23:00;1.20;;;1.10;;
11220;SDS011;8517;53.546;10.104;2023-04-01T06:25:45;1.00;;;0.90;;
11220;SDS011;8517;53.546;10.104;2023-04-01T06:31:50;1.07;;;0.90;;
11220;SDS011;8517;53.546;10.104;2023-04-01T06:34:49;0.90;;;0.90;;
11220;SDS011;8517;53.546;10.104;2023-04-01T06:37:31;0.73;;;0.73;;
11220;SDS011;8517;53.546;10.104;2023-04-01T06:40:22;1.23;;;1.10;;
11220;SDS011;8517;53.546;10.104;2023-04-01T06:43:06;1.40;;;1.30;;
11220;SDS011;8517;53.546;10.104;2023-04-01T06:45:39;1.07;;;1.00;;
11220;SDS011;8517;53.546;10.104;2023-04-01T06:48:18;1.10;;;1.00;;
11220;SDS011;8517;53.546;10.104;2023-04-01T06:51:12;1.67;;;1.00;;
11220;SDS011;8517;53.546;10.104;2023-04-01T06:53:47;0.80;;;0.80;;
11220;SDS011;8517;53.546;10.104;2023-04-01T06:56:22;0.70;;;0.70;;
11220;SDS011;8517;53.546;10.104;2023-04-01T06:58:53;0.70;;;0.57;;
11220;SDS011;8517;53.546;10.104;2023-04-01T07:01:26;0.73;;;0.63;;
11220;SDS011;8517;53.546;10.104;2023-04-01T07:04:00;0.60;;;0.60;;
11220;SDS011;8517;53.546;10.104;2023-04-01T07:06:32;0.67;;;0.67;;
11220;SDS011;8517;53.546;10.104;2023-04-01T07:09:03;0.60;;;0.60;;
11220;SDS011;8517;53.546;10.104;2023-04-01T07:11:45;0.70;;;0.40;;
11220;SDS011;8517;53.546;10.104;2023-04-01T07:14:13;1.00;;;1.00;;
11220;SDS011;8517;53.546;10.104;2023-04-01T07:16:49;0.67;;;0.67;;
11220;SDS011;8517;53.546;10.104;2023-04-01T07:19:24;1.20;;;0.63;;
11220;SDS011;8517;53.546;10.104;2023-04-01T07:22:17;0.97;;;0.80;;
11220;SDS011;8517;53.546;10.104;2023-04-01T07:24:52;0.90;;;0.80;;
11220;SDS011;8517;53.546;10.104;2023-04-01T07:27:22;0.80;;;0.80;;
11220;SDS011;8517;53.546;10.104;2023-04-01T07:29:49;1.47;;;0.80;;
11220;SDS011;8517;53.546;10.104;2023-04-01T07:32:22;0.67;;;0.67;;
11220;SDS011;8517;53.546;10.104;2023-04-01T07:35:07;0.93;;;0.90;;
11220;SDS011;8517;53.546;10.104;2023-04-01T07:37:43;2.00;;;1.00;;
11220;SDS011;8517;53.546;10.104;2023-04-01T07:40:21;1.67;;;1.00;;
11220;SDS011;8517;53.546;10.104;2023-04-01T07:43:02;1.30;;;0.80;;
11220;SDS011;8517;53.546;10.104;2023-04-01T07:45:51;2.17;;;1.47;;
11220;SDS011;8517;53.546;10.104;2023-04-01T07:48:32;0.80;;;0.80;;
11220;SDS011;8517;53.546;10.104;2023-04-01T07:51:07;1.40;;;1.00;;
11220;SDS011;8517;53.546;10.104;2023-04-01T07:53:41;0.80;;;0.80;;
11220;SDS011;8517;53.546;10.104;2023-04-01T07:56:12;1.43;;;0.80;;
11220;SDS011;8517;53.546;10.104;2023-04-01T07:58:51;1.23;;;0.83;;
11220;SDS011;8517;53.546;10.104;2023-04-01T08:01:24;1.00;;;0.70;;
11220;SDS011;8517;53.546;10.104;2023-04-01T08:06:56;0.80;;;0.77;;
11220;SDS011;8517;53.546;10.104;2023-04-01T08:09:29;1.07;;;0.73;;
11220;SDS011;8517;53.546;10.104;2023-04-01T08:12:09;0.70;;;0.70;;
11220;SDS011;8517;53.546;10.104;2023-04-01T08:14:52;0.60;;;0.60;;
11220;SDS011;8517;53.546;10.104;2023-04-01T08:17:28;0.73;;;0.73;;
11220;SDS011;8517;53.546;10.104;2023-04-01T08:20:07;0.70;;;0.70;;
11220;SDS011;8517;53.546;10.104;2023-04-01T08:22:42;0.63;;;0.63;;
11220;SDS011;8517;53.546;10.104;2023-04-01T08:25:13;0.57;;;0.57;;
11220;SDS011;8517;53.546;10.104;2023-04-01T08:27:46;0.77;;;0.77;;
11220;SDS011;8517;53.546;10.104;2023-04-01T08:30:19;0.77;;;0.60;;
11220;SDS011;8517;53.546;10.104;2023-04-01T08:32:50;0.77;;;0.77;;
11220;SDS011;8517;53.546;10.104;2023-04-01T08:35:26;0.50;;;0.50;;
11220;SDS011;8517;53.546;10.104;2023-04-01T08:38:05;0.60;;;0.60;;
11220;SDS011;8517;53.546;10.104;2023-04-01T08:40:46;0.80;;;0.80;;
11220;SDS011;8517;53.546;10.104;2023-04-01T08:49:37;1.33;;;0.97;;
11220;SDS011;8517;53.546;10.104;2023-04-01T08:52:28;1.20;;;1.10;;
11220;SDS011;8517;53.546;10.104;2023-04-01T08:57:53;2.70;;;1.20;;
11220;SDS011;8517;53.546;10.104;2023-04-01T09:00:43;0.90;;;0.80;;
11220;SDS011;8517;53.546;10.104;2023-04-01T09:03:33;1.23;;;0.80;;
11220;SDS011;8517;53.546;10.104;2023-04-01T09:06:17;0.73;;;0.73;;
11220;SDS011;8517;53.546;10.104;2023-04-01T09:09:01;0.70;;;0.70;;
11220;SDS011;8517;53.546;10.104;2023-04-01T09:12:06;1.00;;;0.90;;
11220;SDS011;8517;53.546;10.104;2023-04-01T09:14:58;0.70;;;0.70;;
11220;SDS011;8517;53.546;10.104;2023-04-01T09:18:01;1.07;;;0.70;;
11220;SDS011;8517;53.546;10.104;2023-04-01T09:20:53;0.57;;;0.57;;
11220;SDS011;8517;53.546;10.104;2023-04-01T09:24:01;0.67;;;0.60;;
11220;SDS011;8517;53.546;10.104;2023-04-01T09:36:12;0.70;;;0.70;;
11220;SDS011;8517;53.546;10.104;2023-04-01T09:38:54;1.63;;;0.90;;
11220;SDS011;8517;53.546;10.104;2023-04-01T09:45:14;1.13;;;0.80;;
11220;SDS011;8517;53.546;10.104;2023-04-01T09:54:48;1.17;;;0.70;;
11220;SDS011;8517;53.546;10.104;2023-04-01T09:57:40;1.40;;;0.83;;
11220;SDS011;8517;53.546;10.104;2023-04-01T10:00:55;1.13;;;1.03;;
11220;SDS011;8517;53.546;10.104;2023-04-01T10:03:58;0.63;;;0.53;;
11220;SDS011;8517;53.546;10.104;2023-04-01T10:07:06;1.23;;;0.60;;
11220;SDS011;8517;53.546;10.104;2023-04-01T10:10:14;1.03;;;0.70;;
11220;SDS011;8517;53.546;10.104;2023-04-01T10:19:06;1.13;;;0.87;;
11220;SDS011;8517;53.546;10.104;2023-04-01T10:21:49;0.90;;;0.70;;
11220;SDS011;8517;53.546;10.104;2023-04-01T10:24:53;0.70;;;0.70;;
11220;SDS011;8517;53.546;10.104;2023-04-01T10:27:43;1.87;;;0.70;;
11220;SDS011;8517;53.546;10.104;2023-04-01T10:30:37;0.50;;;0.50;;
11220;SDS011;8517;53.546;10.104;2023-04-01T10:33:59;0.60;;;0.60;;
11220;SDS011;8517;53.546;10.104;2023-04-01T10:36:54;0.40;;;0.40;;
11220;SDS011;8517;53.546;10.104;2023-04-01T10:42:49;0.60;;;0.60;;
11220;SDS011;8517;53.546;10.104;2023-04-01T10:45:51;0.60;;;0.60;;
11220;SDS011;8517;53.546;10.104;2023-04-01T10:52:01;0.60;;;0.60;;
11220;SDS011;8517;53.546;10.104;2023-04-01T10:54:47;0.60;;;0.60;;
11220;SDS011;8517;53.546;10.104;2023-04-01T10:57:30;0.60;;;0.60;;
11220;SDS011;8517;53.546;10.104;2023-04-01T11:00:28;0.50;;;0.50;;
11220;SDS011;8517;53.546;10.104;2023-04-01T11:12:53;0.87;;;0.77;;
11220;SDS011;8517;53.546;10.104;2023-04-01T11:15:48;0.67;;;0.67;;
11220;SDS011;8517;53.546;10.104;2023-04-01T11:24:54;0.90;;;0.90;;
11220;SDS011;8517;53.546;10.104;2023-04-01T11:27:48;0.73;;;0.70;;
11220;SDS011;8517;53.546;10.104;2023-04-01T11:30:46;1.07;;;0.97;;
11220;SDS011;8517;53.546;10.104;2023-04-01T11:33:28;0.70;;;0.60;;
11220;SDS011;8517;53.546;10.104;2023-04-01T11:39:39;1.20;;;1.00;;
11220;SDS011;8517;53.546;10.104;2023-04-01T11:46:00;1.63;;;1.30;;
11220;SDS011;8517;53.546;10.104;2023-04-01T11:51:45;1.23;;;1.13;;
11220;SDS011;8517;53.546;10.104;2023-04-01T11:54:32;1.63;;;1.53;;
11220;SDS011;8517;53.546;10.104;2023-04-01T11:57:17;1.73;;;1.63;;
11220;SDS011;8517;53.546;10.104;2023-04-01T12:00:22;2.73;;;1.90;;
11220;SDS011;8517;53.546;10.104;2023-04-01T12:06:14;3.70;;;1.97;;
11220;SDS011;8517;53.546;10.104;2023-04-01T12:08:46;2.27;;;1.97;;
11220;SDS011;8517;53.546;10.104;2023-04-01T12:11:22;3.63;;;2.10;;
11220;SDS011;8517;53.546;10.104;2023-04-01T12:13:55;2.20;;;2.00;;
11220;SDS011;8517;53.546;10.104;2023-04-01T12:16:46;10.00;;;5.00;;
11220;SDS011;8517;53.546;10.104;2023-04-01T12:19:28;3.13;;;2.23;;
11220;SDS011;8517;53.546;10.104;2023-04-01T12:22:12;3.30;;;2.30;;
11220;SDS011;8517;53.546;10.104;2023-04-01T12:24:58;2.57;;;2.20;;
11220;SDS011;8517;53.546;10.104;2023-04-01T12:27:59;3.23;;;2.07;;
11220;SDS011;8517;53.546;10.104;2023-04-01T12:30:42;31.37;;;28.60;;
11220;SDS011;8517;53.546;10.104;2023-04-01T12:33:35;29.47;;;26.77;;
11220;SDS011;8517;53.546;10.104;2023-04-01T12:45:43;2.17;;;1.97;;
11220;SDS011;8517;53.546;10.104;2023-04-01T12:48:30;3.60;;;2.30;;
11220;SDS011;8517;53.546;10.104;2023-04-01T12:51:41;3.10;;;2.37;;
11220;SDS011;8517;53.546;10.104;2023-04-01T13:01:58;4.20;;;2.40;;
11220;SDS011;8517;53.546;10.104;2023-04-01T13:15:05;3.10;;;2.47;;
11220;SDS011;8517;53.546;10.104;2023-04-01T13:17:48;4.47;;;2.40;;
11220;SDS011;8517;53.546;10.104;2023-04-01T13:20:45;2.70;;;2.27;;
11220;SDS011;8517;53.546;10.104;2023-04-01T13:23:27;3.00;;;2.37;;
11220;SDS011;8517;53.546;10.104;2023-04-01T13:26:11;2.87;;;2.30;;
11220;SDS011;8517;53.546;10.104;2023-04-01T13:28:50;2.83;;;2.47;;
11220;SDS011;8517;53.546;10.104;2023-04-01T13:31:45;2.13;;;1.80;;
11220;SDS011;8517;53.546;10.104;2023-04-01T13:34:30;3.40;;;2.30;;
11220;SDS011;8517;53.546;10.104;2023-04-01T13:37:18;4.23;;;2.57;;
11220;SDS011;8517;53.546;10.104;2023-04-01T13:39:55;2.97;;;2.10;;
11220;SDS011;8517;53.546;10.104;2023-04-01T13:42:31;4.33;;;2.83;;
11220;SDS011;8517;53.546;10.104;2023-04-01T13:45:08;3.80;;;3.10;;
11220;SDS011;8517;53.546;10.104;2023-04-01T13:50:48;3.57;;;2.50;;
11220;SDS011;8517;53.546;10.104;2023-04-01T13:56:48;3.83;;;2.97;;
11220;SDS011;8517;53.546;10.104;2023-04-01T13:59:33;3.37;;;2.30;;
11220;SDS011;8517;53.546;10.104;2023-04-01T14:02:24;2.50;;;2.27;;
11220;SDS011;8517;53.546;10.104;2023-04-01T14:08:17;3.30;;;3.00;;
11220;SDS011;8517;53.546;10.104;2023-04-01T14:10:58;3.80;;;2.60;;
11220;SDS011;8517;53.546;10.104;2023-04-01T14:13:41;4.97;;;3.10;;
11220;SDS011;8517;53.546;10.104;2023-04-01T14:16:20;4.43;;;2.80;;
11220;SDS011;8517;53.546;10.104;2023-04-01T14:19:20;3.10;;;2.70;;
11220;SDS011;8517;53.546;10.104;2023-04-01T14:22:25;5.33;;;3.27;;
11220;SDS011;8517;53.546;10.104;2023-04-01T14:25:06;3.90;;;2.87;;
11220;SDS011;8517;53.546;10.104;2023-04-01T14:27:57;3.67;;;3.00;;
11220;SDS011;8517;53.546;10.104;2023-04-01T14:30:36;4.77;;;3.07;;
11220;SDS011;8517;53.546;10.104;2023-04-01T14:33:22;3.80;;;2.67;;
11220;SDS011;8517;53.546;10.104;2023-04-01T14:36:02;5.73;;;3.40;;
11220;SDS011;8517;53.546;10.104;2023-04-01T14:38:50;7.00;;;3.90;;
11220;SDS011;8517;53.546;10.104;2023-04-01T14:48:18;3.53;;;2.87;;
11220;SDS011;8517;53.546;10.104;2023-04-01T14:51:09;3.83;;;3.13;;
11220;SDS011;8517;53.546;10.104;2023-04-01T14:56:35;3.47;;;2.80;;
11220;SDS011;8517;53.546;10.104;2023-04-01T14:59:08;5.37;;;3.77;;
11220;SDS011;8517;53.546;10.104;2023-04-01T15:01:40;5.50;;;3.50;;
11220;SDS011;8517;53.546;10.104;2023-04-01T15:07:35;8.80;;;4.07;;
11220;SDS011;8517;53.546;10.104;2023-04-01T15:10:19;5.90;;;3.93;;
11220;SDS011;8517;53.546;10.104;2023-04-01T15:13:14;5.50;;;4.07;;
11220;SDS011;8517;53.546;10.104;2023-04-01T15:15:51;5.23;;;3.83;;
11220;SDS011;8517;53.546;10.104;2023-04-01T15:18:33;7.07;;;4.10;;
11220;SDS011;8517;53.546;10.104;2023-04-01T15:21:15;5.57;;;3.67;;
11220;SDS011;8517;53.546;10.104;2023-04-01T15:26:39;5.93;;;3.13;;
11220;SDS011;8517;53.546;10.104;2023-04-01T15:29:27;6.73;;;3.93;;
11220;SDS011;8517;53.546;10.104;2023-04-01T15:32:16;5.73;;;3.63;;
11220;SDS011;8517;53.546;10.104;2023-04-01T15:34:49;7.77;;;4.70;;
11220;SDS011;8517;53.546;10.104;2023-04-01T15:37:25;5.50;;;4.10;;
11220;SDS011;8517;53.546;10.104;2023-04-01T15:40:02;6.67;;;4.30;;
11220;SDS011;8517;53.546;10.104;2023-04-01T15:42:45;8.70;;;4.20;;
11220;SDS011;8517;53.546;10.104;2023-04-01T15:45:26;8.50;;;3.77;;
11220;SDS011;8517;53.546;10.104;2023-04-01T15:48:05;6.37;;;4.20;;
11220;SDS011;8517;53.546;10.104;2023-04-01T15:56:57;5.50;;;3.73;;
11220;SDS011;8517;53.546;10.104;2023-04-01T15:59:46;8.67;;;4.37;;
11220;SDS011;8517;53.546;10.104;2023-04-01T16:02:21;5.17;;;3.73;;
11220;SDS011;8517;53.546;10.104;2023-04-01T16:04:57;7.77;;;5.27;;
11220;SDS011;8517;53.546;10.104;2023-04-01T16:07:30;8.67;;;4.87;;
11220;SDS011;8517;53.546;10.104;2023-04-01T16:10:32;8.47;;;4.40;;
11220;SDS011;8517;53.546;10.104;2023-04-01T16:13:22;6.97;;;4.53;;
11220;SDS011;8517;53.546;10.104;2023-04-01T16:16:00;10.33;;;5.47;;
11220;SDS011;8517;53.546;10.104;2023-04-01T16:18:37;5.13;;;4.30;;
11220;SDS011;8517;53.546;10.104;2023-04-01T16:21:21;9.67;;;4.90;;
11220;SDS011;8517;53.546;10.104;2023-04-01T16:24:02;7.60;;;3.77;;
11220;SDS011;8517;53.546;10.104;2023-04-01T16:26:39;8.53;;;4.90;;
11220;SDS011;8517;53.546;10.104;2023-04-01T16:29:17;5.87;;;3.77;;
11220;SDS011;8517;53.546;10.104;2023-04-01T16:31:52;6.37;;;4.30;;
11220;SDS011;8517;53.546;10.104;2023-04-01T16:34:25;8.27;;;4.30;;
11220;SDS011;8517;53.546;10.104;2023-04-01T16:36:59;6.23;;;4.10;;
11220;SDS011;8517;53.546;10.104;2023-04-01T16:39:52;14.97;;;3.67;;
11220;SDS011;8517;53.546;10.104;2023-04-01T16:42:38;5.00;;;3.70;;
11220;SDS011;8517;53.546;10.104;2023-04-01T16:45:16;5.63;;;3.83;;
11220;SDS011;8517;53.546;10.104;2023-04-01T16:47:50;6.53;;;4.33;;
11220;SDS011;8517;53.546;10.104;2023-04-01T16:50:21;9.17;;;4.73;;
11220;SDS011;8517;53.546;10.104;2023-04-01T16:53:00;7.30;;;4.63;;
11220;SDS011;8517;53.546;10.104;2023-04-01T16:55:44;7.77;;;4.27;;
11220;SDS011;8517;53.546;10.104;2023-04-01T16:58:20;7.17;;;4.27;;
11220;SDS011;8517;53.546;10.104;2023-04-01T17:00:55;6.07;;;3.77;;
11220;SDS011;8517;53.546;10.104;2023-04-01T17:03:46;6.70;;;3.90;;
11220;SDS011;8517;53.546;10.104;2023-04-01T17:06:24;8.03;;;3.53;;
11220;SDS011;8517;53.546;10.104;2023-04-01T17:09:02;6.30;;;4.10;;
11220;SDS011;8517;53.546;10.104;2023-04-01T17:11:41;3.97;;;3.40;;
11220;SDS011;8517;53.546;10.104;2023-04-01T17:14:17;9.57;;;4.20;;
11220;SDS011;8517;53.546;10.104;2023-04-01T17:16:58;5.10;;;3.53;;
11220;SDS011;8517;53.546;10.104;2023-04-01T17:19:42;6.83;;;4.17;;
11220;SDS011;8517;53.546;10.104;2023-04-01T17:22:24;6.63;;;3.70;;
11220;SDS011;8517;53.546;10.104;2023-04-01T17:25:03;6.07;;;4.23;;
11220;SDS011;8517;53.546;10.104;2023-04-01T17:27:44;6.67;;;4.67;;
11220;SDS011;8517;53.546;10.104;2023-04-01T17:30:22;7.03;;;3.80;;
11220;SDS011;8517;53.546;10.104;2023-04-01T17:33:02;5.60;;;3.40;;
11220;SDS011;8517;53.546;10.104;2023-04-01T17:35:52;5.63;;;3.43;;
11220;SDS011;8517;53.546;10.104;2023-04-01T17:38:33;5.87;;;3.87;;
11220;SDS011;8517;53.546;10.104;2023-04-01T17:41:46;7.00;;;3.60;;
11220;SDS011;8517;53.546;10.104;2023-04-01T17:44:28;7.17;;;4.27;;
11220;SDS011;8517;53.546;10.104;2023-04-01T17:50:28;11.33;;;4.83;;
11220;SDS011;8517;53.546;10.104;2023-04-01T17:53:18;6.60;;;4.13;;
11220;SDS011;8517;53.546;10.104;2023-04-01T17:59:02;5.17;;;3.20;;
11220;SDS011;8517;53.546;10.104;2023-04-01T18:01:49;7.13;;;2.47;;
11220;SDS011;8517;53.546;10.104;2023-04-01T18:07:35;8.03;;;5.10;;
11220;SDS011;8517;53.546;10.104;2023-04-01T18:10:26;5.40;;;2.73;;
11220;SDS011;8517;53.546;10.104;2023-04-01T18:13:02;3.23;;;2.60;;
11220;SDS011;8517;53.546;10.104;2023-04-01T18:15:44;3.93;;;2.83;;
11220;SDS011;8517;53.546;10.104;2023-04-01T18:18:25;5.10;;;2.80;;
11220;SDS011;8517;53.546;10.104;2023-04-01T18:24:21;6.57;;;3.60;;